Granada, Colorado
Current Conditions -  °F | °C
As of 2:53 PM on Friday 24 Oct 2014 (Local Time) from KLAA Reporting Station
Clear Clear  
Wind Chill: 86°   Ceiling: Unl
Heat Index: 86°   Visibility: 10mi
Dew Point: 32°   Wind: 0mph
Humidity: 14%   Direction: NA
Pressure: 30.05"   Gusts: NA
Location:  38.06°N, 102.31°W
Report Text: KLAA 242053Z AUTO 00000KT 10SM CLR 30/00 A3005 RMK AO2 SLP139 T03000000 56021
Loading
Personal Weather Stations






























Interactive Weather Map
Tropical Storm Tracking
New forecast layout! Learn more

10-Day Weather Forecast

Advertisements
Track Severe Weather on mobile